createdAt,value
2018-12-27T00:03:18.393Z,12.20
2018-12-27T00:08:35.277Z,12.33
2018-12-27T00:13:51.456Z,14.17
2018-12-27T00:19:07.232Z,11.57
2018-12-27T00:24:22.740Z,17.03
2018-12-27T00:29:38.314Z,13.63
2018-12-27T00:34:53.766Z,12.30
2018-12-27T00:40:09.140Z,15.83
2018-12-27T00:45:24.884Z,15.67
2018-12-27T00:50:40.567Z,13.87
2018-12-27T00:55:55.983Z,16.87
2018-12-27T01:01:11.840Z,14.00
2018-12-27T01:06:27.937Z,14.33
2018-12-27T01:11:43.492Z,16.63
2018-12-27T01:16:59.236Z,16.43
2018-12-27T01:22:15.248Z,17.17
2018-12-27T01:27:30.989Z,15.30
2018-12-27T01:32:46.692Z,14.53
2018-12-27T01:38:02.355Z,16.37
2018-12-27T01:43:18.020Z,19.80
2018-12-27T01:48:33.716Z,15.63
2018-12-27T01:53:49.356Z,15.80
2018-12-27T01:59:05.095Z,18.40
2018-12-27T02:04:20.691Z,18.60
2018-12-27T02:09:36.463Z,15.90
2018-12-27T02:14:52.395Z,16.67
2018-12-27T02:20:08.548Z,17.63
2018-12-27T02:25:24.490Z,15.60
2018-12-27T02:30:39.925Z,20.37
2018-12-27T02:35:55.366Z,16.50
2018-12-27T02:41:10.717Z,17.23
2018-12-27T02:46:26.699Z,18.53
2018-12-27T02:51:42.645Z,17.80
2018-12-27T02:56:58.889Z,17.23
2018-12-27T03:02:14.192Z,17.83
2018-12-27T03:07:33.601Z,16.97
2018-12-27T03:12:49.290Z,14.47
2018-12-27T03:18:05.188Z,15.93
2018-12-27T03:23:20.701Z,16.47
2018-12-27T03:28:36.452Z,17.77
2018-12-27T03:33:52.730Z,15.70
2018-12-27T03:39:08.855Z,13.87
2018-12-27T03:44:24.177Z,17.30
2018-12-27T03:49:40.215Z,15.57
2018-12-27T03:54:56.251Z,17.07
2018-12-27T04:00:12.066Z,16.10
2018-12-27T04:05:28.272Z,18.90
2018-12-27T04:10:44.156Z,17.27
2018-12-27T04:16:00.632Z,16.10
2018-12-27T04:21:15.966Z,16.43
2018-12-27T04:26:32.130Z,16.73
2018-12-27T04:31:48.012Z,17.50
2018-12-27T04:37:03.993Z,20.07
2018-12-27T04:42:19.811Z,17.97
2018-12-27T04:47:35.812Z,12.67
2018-12-27T04:52:55.123Z,14.50
2018-12-27T04:58:10.609Z,14.80
2018-12-27T05:03:26.028Z,19.40
2018-12-27T05:08:41.471Z,14.17
2018-12-27T05:13:58.255Z,16.43
2018-12-27T05:19:13.776Z,14.50
2018-12-27T05:24:29.797Z,15.03
2018-12-27T05:29:45.694Z,13.20
2018-12-27T05:35:01.059Z,16.10
2018-12-27T05:40:17.208Z,15.00
2018-12-27T05:45:33.188Z,15.50
2018-12-27T05:50:49.020Z,14.30
2018-12-27T05:56:05.112Z,19.47
2018-12-27T06:01:21.035Z,16.00
2018-12-27T06:06:36.738Z,15.53
2018-12-27T06:11:52.898Z,16.13
2018-12-27T06:17:11.483Z,13.63
2018-12-27T06:22:27.009Z,13.80
2018-12-27T06:27:42.623Z,15.97
2018-12-27T06:32:58.576Z,14.93
2018-12-27T06:38:14.461Z,16.30
2018-12-27T06:43:29.838Z,12.83
2018-12-27T06:48:45.679Z,16.03
2018-12-27T06:54:01.724Z,15.17
2018-12-27T06:59:17.680Z,15.47
2018-12-27T07:04:33.737Z,16.60
2018-12-27T07:09:49.768Z,16.63
2018-12-27T07:15:05.884Z,14.53
2018-12-27T07:20:21.360Z,16.47
2018-12-27T07:25:37.153Z,14.23
2018-12-27T07:30:52.879Z,16.20
2018-12-27T07:36:08.521Z,16.77
2018-12-27T07:41:24.618Z,18.00
2018-12-27T07:46:40.320Z,15.13
2018-12-27T07:51:55.963Z,16.07
2018-12-27T07:57:11.691Z,17.57
2018-12-27T08:02:27.322Z,21.43
2018-12-27T08:07:42.679Z,16.37
2018-12-27T08:12:58.644Z,17.70
2018-12-27T08:18:14.553Z,15.20
2018-12-27T08:23:30.256Z,15.80
2018-12-27T08:28:45.623Z,17.90
2018-12-27T08:34:01.445Z,15.70
2018-12-27T08:39:17.155Z,16.57
2018-12-27T08:44:32.888Z,15.30
2018-12-27T08:49:48.585Z,19.30
2018-12-27T08:55:04.279Z,15.30
2018-12-27T09:00:20.088Z,19.07
2018-12-27T09:05:35.431Z,16.40
2018-12-27T09:10:51.352Z,19.63
2018-12-27T09:16:06.843Z,21.13
2018-12-27T09:21:22.221Z,17.13
2018-12-27T09:26:38.141Z,19.57
2018-12-27T09:37:36.872Z,16.73
2018-12-27T09:42:52.999Z,17.23
2018-12-27T09:48:08.881Z,18.47
2018-12-27T09:59:05.135Z,21.70
2018-12-27T10:04:21.340Z,21.67
2018-12-27T10:09:36.661Z,18.97
2018-12-27T10:14:50.712Z,18.97
2018-12-27T10:20:06.692Z,22.80
2018-12-27T10:25:22.517Z,22.00
2018-12-27T10:30:38.080Z,22.70
2018-12-27T10:35:53.702Z,24.03
2018-12-27T10:41:09.420Z,18.87
2018-12-27T10:46:25.454Z,20.63
2018-12-27T10:51:40.867Z,20.10
2018-12-27T10:56:56.543Z,22.70
2018-12-27T11:02:12.111Z,24.30
2018-12-27T11:07:27.793Z,19.07
2018-12-27T11:12:43.740Z,23.30
2018-12-27T11:17:59.444Z,20.07
2018-12-27T11:23:15.099Z,22.13
2018-12-27T11:28:30.719Z,21.63
2018-12-27T11:33:46.465Z,22.10
2018-12-27T11:39:01.847Z,21.47
2018-12-27T11:44:17.358Z,21.43
2018-12-27T11:55:16.439Z,22.33
2018-12-27T12:00:32.317Z,21.80
2018-12-27T12:05:48.237Z,22.80
2018-12-27T12:11:04.413Z,18.17
2018-12-27T12:16:20.514Z,21.90
2018-12-27T12:21:35.921Z,21.13
2018-12-27T12:26:52.031Z,20.43
2018-12-27T12:32:08.273Z,21.10
2018-12-27T12:37:23.795Z,20.03
2018-12-27T12:42:40.135Z,19.73
2018-12-27T12:47:56.223Z,17.63
2018-12-27T12:53:12.185Z,20.77
2018-12-27T12:58:27.520Z,17.67
2018-12-27T13:03:42.831Z,16.73
2018-12-27T13:08:58.187Z,19.00
2018-12-27T13:14:14.208Z,18.30
2018-12-27T13:19:30.026Z,17.67
2018-12-27T13:24:46.031Z,16.53
2018-12-27T13:30:02.098Z,17.93
2018-12-27T13:35:17.352Z,17.80
2018-12-27T13:40:33.186Z,16.97
2018-12-27T13:45:48.643Z,18.00
2018-12-27T13:51:04.439Z,16.90
2018-12-27T13:56:20.468Z,16.23
2018-12-27T14:01:37.296Z,17.20
2018-12-27T14:06:53.083Z,15.13
2018-12-27T14:12:08.514Z,15.93
2018-12-27T14:17:24.422Z,15.43
2018-12-27T14:22:40.380Z,15.17
2018-12-27T14:27:55.929Z,15.30
2018-12-27T14:33:11.851Z,15.23
2018-12-27T14:38:27.840Z,12.53
2018-12-27T14:43:43.896Z,15.57
2018-12-27T14:48:59.875Z,13.53
2018-12-27T14:54:15.663Z,13.90
2018-12-27T14:59:31.119Z,13.80
2018-12-27T15:04:47.260Z,15.87
2018-12-27T15:10:02.999Z,11.83
2018-12-27T15:15:19.092Z,13.03
2018-12-27T15:20:34.512Z,13.53
2018-12-27T15:25:50.111Z,13.30
2018-12-27T15:31:05.589Z,13.63
2018-12-27T15:36:21.608Z,12.13
2018-12-27T15:41:37.468Z,13.33
2018-12-27T15:52:33.523Z,13.73
2018-12-27T15:57:49.024Z,12.70
2018-12-27T16:03:04.415Z,14.80
2018-12-27T16:08:20.536Z,12.57
2018-12-27T16:19:16.316Z,12.17
2018-12-27T16:24:32.248Z,14.40
2018-12-27T16:29:48.016Z,13.90
2018-12-27T16:35:03.845Z,15.10
2018-12-27T16:40:19.573Z,12.33
2018-12-27T16:45:35.471Z,14.93
2018-12-27T16:50:51.409Z,13.60
2018-12-27T17:01:47.104Z,15.70
2018-12-27T17:07:02.575Z,15.67
2018-12-27T17:12:18.003Z,11.93
2018-12-27T17:17:34.381Z,13.30
2018-12-27T17:22:49.759Z,13.13
2018-12-27T17:28:05.378Z,13.67
2018-12-27T17:33:24.388Z,11.60
2018-12-27T17:38:40.235Z,15.70
2018-12-27T17:43:56.418Z,14.17
2018-12-27T17:49:12.096Z,16.93
2018-12-27T17:54:27.933Z,11.73
2018-12-27T17:59:44.537Z,13.13
2018-12-27T18:05:00.802Z,15.30
2018-12-27T18:10:17.092Z,12.47
2018-12-27T18:15:33.195Z,12.73
2018-12-27T18:20:47.837Z,10.93
2018-12-27T18:26:10.788Z,13.67
2018-12-27T18:31:33.732Z,13.97
2018-12-27T18:36:56.735Z,11.97
2018-12-27T18:42:20.027Z,15.70
2018-12-27T18:47:42.973Z,13.13
2018-12-27T18:53:06.445Z,14.40
2018-12-27T18:58:29.395Z,14.30
2018-12-27T19:03:52.328Z,11.13
2018-12-27T19:09:15.333Z,15.77
2018-12-27T19:14:38.311Z,23.17
2018-12-27T19:19:54.163Z,32.27
2018-12-27T19:25:09.905Z,14.63
2018-12-27T19:30:25.484Z,20.97
2018-12-27T19:35:41.096Z,13.57
2018-12-27T19:40:56.715Z,15.00
2018-12-27T19:46:12.602Z,15.33
2018-12-27T19:51:29.648Z,20.93
2018-12-27T19:56:45.630Z,15.00
2018-12-27T20:02:01.577Z,18.07
2018-12-27T20:07:17.734Z,10.93
2018-12-27T20:12:33.203Z,13.27
2018-12-27T20:17:49.287Z,14.97
2018-12-27T20:23:05.607Z,12.90
2018-12-27T20:28:22.192Z,13.20
2018-12-27T20:33:38.441Z,13.27
2018-12-27T20:38:54.187Z,11.30
2018-12-27T20:44:10.107Z,12.43
2018-12-27T20:49:25.984Z,12.83
2018-12-27T21:00:22.227Z,13.50
2018-12-27T21:05:38.393Z,14.33
2018-12-27T21:10:54.568Z,13.70
2018-12-27T21:16:10.564Z,12.70
2018-12-27T21:21:26.106Z,11.80
2018-12-27T21:26:42.161Z,10.87
2018-12-27T21:31:57.946Z,11.07
2018-12-27T21:37:13.404Z,12.10
2018-12-27T21:42:29.044Z,11.20
2018-12-27T21:47:44.678Z,15.00
2018-12-27T21:53:00.345Z,11.90
2018-12-27T21:58:16.015Z,15.27
2018-12-27T22:03:31.580Z,13.30
2018-12-27T22:08:47.326Z,12.07
2018-12-27T22:14:02.856Z,11.33
2018-12-27T22:19:18.315Z,11.80
2018-12-27T22:24:34.505Z,9.40
2018-12-27T22:29:50.156Z,12.10
2018-12-27T22:35:06.019Z,9.07
2018-12-27T22:40:21.919Z,11.10
2018-12-27T22:45:37.672Z,11.40
2018-12-27T22:50:53.251Z,11.20
2018-12-27T22:56:09.322Z,12.93
2018-12-27T23:01:25.209Z,10.47
2018-12-27T23:06:40.968Z,12.60
2018-12-27T23:11:56.975Z,10.33
2018-12-27T23:17:12.543Z,9.50
2018-12-27T23:22:28.451Z,9.43
2018-12-27T23:27:44.257Z,8.50
2018-12-27T23:32:59.779Z,10.53
2018-12-27T23:38:15.398Z,12.00
2018-12-27T23:43:31.215Z,11.13
2018-12-27T23:48:46.724Z,11.07
2018-12-27T23:54:02.719Z,10.87
2018-12-27T23:59:18.071Z,8.93
